createdAt,value
2023-02-20T00:00:49.027Z,2.85
2023-02-20T00:03:21.597Z,2.90
2023-02-20T00:05:53.430Z,2.88
2023-02-20T00:08:25.631Z,2.94
2023-02-20T00:10:57.385Z,2.84
2023-02-20T00:13:30.431Z,2.79
2023-02-20T00:16:02.206Z,2.88
2023-02-20T00:18:35.153Z,2.96
2023-02-20T00:21:09.193Z,2.94
2023-02-20T00:23:41.842Z,2.90
2023-02-20T00:26:16.437Z,3.03
2023-02-20T00:28:48.796Z,3.16
2023-02-20T00:31:21.384Z,3.21
2023-02-20T00:33:54.405Z,3.17
2023-02-20T00:36:26.301Z,3.11
2023-02-20T00:38:58.374Z,3.04
2023-02-20T00:41:30.226Z,2.89
2023-02-20T00:44:01.835Z,2.83
2023-02-20T00:46:33.973Z,2.87
2023-02-20T00:49:06.920Z,2.97
2023-02-20T00:51:38.681Z,3.06
2023-02-20T00:54:11.302Z,3.09
2023-02-20T00:56:43.237Z,3.10
2023-02-20T00:59:15.714Z,3.18
2023-02-20T01:01:47.588Z,3.03
2023-02-20T01:04:20.312Z,2.99
2023-02-20T01:06:52.962Z,2.99
2023-02-20T01:09:26.805Z,3.07
2023-02-20T01:11:58.611Z,3.20
2023-02-20T01:14:30.442Z,3.11
2023-02-20T01:17:02.546Z,3.07
2023-02-20T01:19:34.328Z,3.05
2023-02-20T01:22:09.143Z,3.00
2023-02-20T01:24:38.890Z,2.97
2023-02-20T01:27:11.874Z,3.00
2023-02-20T01:29:43.471Z,3.13
2023-02-20T01:32:15.838Z,3.15
2023-02-20T01:34:48.002Z,3.08
2023-02-20T01:37:21.155Z,3.22
2023-02-20T01:39:53.021Z,3.26
2023-02-20T01:42:26.499Z,3.15
2023-02-20T01:45:11.910Z,3.12
2023-02-20T01:47:44.642Z,3.03
2023-02-20T01:50:18.792Z,3.12
2023-02-20T01:52:54.924Z,3.26
2023-02-20T01:55:30.397Z,3.14
2023-02-20T01:58:08.018Z,3.31
2023-02-20T02:00:40.949Z,3.26
2023-02-20T02:03:14.820Z,3.27
2023-02-20T02:05:48.845Z,3.24
2023-02-20T02:08:24.451Z,3.14
2023-02-20T02:11:06.204Z,3.03
2023-02-20T02:13:39.600Z,3.13
2023-02-20T02:16:26.180Z,3.17
2023-02-20T02:19:03.527Z,3.26
2023-02-20T02:22:00.813Z,3.19
2023-02-20T02:25:05.463Z,3.29
2023-02-20T02:28:07.528Z,3.36
2023-02-20T02:31:12.136Z,3.52
2023-02-20T02:34:27.569Z,3.50
2023-02-20T02:37:11.601Z,3.52
2023-02-20T02:39:50.720Z,3.52
2023-02-20T02:42:31.019Z,3.47
2023-02-20T02:45:11.990Z,3.34
2023-02-20T02:47:48.229Z,3.29
2023-02-20T02:50:25.742Z,3.36
2023-02-20T02:52:59.111Z,3.42
2023-02-20T02:55:34.636Z,3.56
2023-02-20T02:58:06.998Z,3.57
2023-02-20T03:00:41.645Z,3.47
2023-02-20T03:03:18.725Z,3.43
2023-02-20T03:05:57.418Z,3.34
2023-02-20T03:08:37.316Z,3.32
2023-02-20T03:11:14.358Z,3.27
2023-02-20T03:14:07.206Z,3.14
2023-02-20T03:16:48.808Z,3.34
2023-02-20T03:19:27.448Z,3.54
2023-02-20T03:22:00.527Z,3.64
2023-02-20T03:24:54.553Z,3.51
2023-02-20T03:27:39.080Z,3.71
2023-02-20T03:30:18.471Z,3.63
2023-02-20T03:33:11.641Z,3.44
2023-02-20T03:36:03.081Z,3.44
2023-02-20T03:38:56.486Z,3.46
2023-02-20T03:41:48.911Z,3.52
2023-02-20T03:44:22.677Z,3.44
2023-02-20T03:46:57.627Z,3.31
2023-02-20T03:49:51.286Z,3.41
2023-02-20T03:52:24.104Z,3.36
2023-02-20T03:54:56.353Z,3.27
2023-02-20T03:57:33.329Z,3.33
2023-02-20T04:00:10.243Z,3.32
2023-02-20T04:02:45.236Z,3.27
2023-02-20T04:05:21.349Z,3.28
2023-02-20T04:07:57.813Z,3.32
2023-02-20T04:10:33.515Z,3.33
2023-02-20T04:13:07.368Z,3.38
2023-02-20T04:15:39.439Z,3.28
2023-02-20T04:18:14.627Z,3.26
2023-02-20T04:20:47.363Z,3.19
2023-02-20T04:23:21.308Z,3.07
2023-02-20T04:25:58.881Z,3.02
2023-02-20T04:28:35.880Z,2.94
2023-02-20T04:31:15.224Z,2.96
2023-02-20T04:33:47.124Z,3.08
2023-02-20T04:36:19.819Z,3.08
2023-02-20T04:38:52.150Z,2.98
2023-02-20T04:41:24.413Z,2.80
2023-02-20T04:44:16.771Z,2.78
2023-02-20T04:46:49.123Z,2.86
2023-02-20T04:49:22.083Z,2.94
2023-02-20T04:51:54.459Z,2.87
2023-02-20T04:54:26.814Z,2.89
2023-02-20T04:56:59.184Z,2.77
2023-02-20T04:59:31.382Z,2.62
2023-02-20T05:02:03.431Z,2.60
2023-02-20T05:04:36.624Z,2.74
2023-02-20T05:07:09.518Z,2.80
2023-02-20T05:09:44.578Z,2.91
2023-02-20T05:12:16.190Z,3.10
2023-02-20T05:14:47.828Z,3.22
2023-02-20T05:17:20.098Z,3.13
2023-02-20T05:19:51.849Z,2.96
2023-02-20T05:22:24.272Z,2.77
2023-02-20T05:24:56.301Z,2.75
2023-02-20T05:27:29.700Z,2.84
2023-02-20T05:30:02.555Z,2.93
2023-02-20T05:32:34.982Z,2.95
2023-02-20T05:35:08.252Z,3.04
2023-02-20T05:37:40.054Z,3.20
2023-02-20T05:40:14.311Z,3.10
2023-02-20T05:42:46.556Z,3.02
2023-02-20T05:45:20.429Z,3.04
2023-02-20T05:47:52.790Z,2.96
2023-02-20T05:50:25.489Z,2.97
2023-02-20T05:52:57.514Z,2.94
2023-02-20T05:55:29.323Z,2.84
2023-02-20T05:58:01.388Z,2.84
2023-02-20T06:00:33.813Z,2.92
2023-02-20T06:03:07.623Z,3.12
2023-02-20T06:05:42.251Z,3.29
2023-02-20T06:08:14.498Z,3.37
2023-02-20T06:10:46.190Z,3.36
2023-02-20T06:13:17.882Z,3.36
2023-02-20T06:15:50.745Z,3.51
2023-02-20T06:18:22.673Z,3.57
2023-02-20T06:20:55.016Z,3.58
2023-02-20T06:23:26.876Z,3.55
2023-02-20T06:25:58.971Z,3.52
2023-02-20T06:28:31.418Z,3.53
2023-02-20T06:31:03.253Z,3.58
2023-02-20T06:33:35.056Z,3.66
2023-02-20T06:36:08.445Z,3.69
2023-02-20T06:38:40.217Z,3.80
2023-02-20T06:41:12.046Z,3.81
2023-02-20T06:43:44.126Z,3.85
2023-02-20T06:46:16.491Z,4.00
2023-02-20T06:48:53.847Z,4.02
2023-02-20T06:51:28.392Z,4.12
2023-02-20T06:54:01.937Z,4.13
2023-02-20T06:56:35.534Z,4.27
2023-02-20T06:59:09.579Z,4.33
2023-02-20T07:01:45.270Z,4.28
2023-02-20T07:04:21.744Z,4.26
2023-02-20T07:06:53.659Z,4.37
2023-02-20T07:09:26.616Z,4.52
2023-02-20T07:11:58.922Z,4.60
2023-02-20T07:14:30.675Z,4.57
2023-02-20T07:17:02.499Z,4.51
2023-02-20T07:19:34.206Z,4.57
2023-02-20T07:22:06.183Z,4.62
2023-02-20T07:24:37.958Z,4.81
2023-02-20T07:27:11.125Z,4.86
2023-02-20T07:29:43.023Z,4.88
2023-02-20T07:32:14.843Z,4.86
2023-02-20T07:35:02.414Z,4.88
2023-02-20T07:37:35.665Z,5.02
2023-02-20T07:40:08.630Z,5.13
2023-02-20T07:42:40.330Z,5.25
2023-02-20T07:45:15.606Z,5.39
2023-02-20T07:47:47.511Z,5.55
2023-02-20T07:50:20.533Z,5.58
2023-02-20T07:52:52.349Z,5.68
2023-02-20T07:55:24.772Z,5.73
2023-02-20T07:57:58.623Z,5.68
2023-02-20T08:00:30.832Z,5.60
2023-02-20T08:03:02.822Z,5.50
2023-02-20T08:05:48.223Z,5.50
2023-02-20T08:08:24.866Z,5.62
2023-02-20T08:11:03.685Z,5.68
2023-02-20T08:13:40.415Z,5.58
2023-02-20T08:16:12.708Z,5.45
2023-02-20T08:18:44.724Z,5.33
2023-02-20T08:21:17.047Z,5.30
2023-02-20T08:23:48.951Z,5.27
2023-02-20T08:26:20.973Z,5.28
2023-02-20T08:28:54.190Z,5.30
2023-02-20T08:31:32.548Z,5.29
2023-02-20T08:34:04.908Z,5.25
2023-02-20T08:36:36.766Z,5.21
2023-02-20T08:39:08.628Z,5.25
2023-02-20T08:41:45.488Z,5.16
2023-02-20T08:44:17.911Z,5.26
2023-02-20T08:46:54.048Z,5.27
2023-02-20T08:49:27.242Z,5.21
2023-02-20T08:52:00.534Z,5.31
2023-02-20T08:54:32.323Z,5.40
2023-02-20T08:57:04.054Z,5.36
2023-02-20T08:59:37.605Z,5.25
2023-02-20T09:02:10.804Z,5.15
2023-02-20T09:04:44.495Z,4.97
2023-02-20T09:07:16.881Z,5.01
2023-02-20T09:09:48.817Z,5.04
2023-02-20T09:12:21.687Z,4.97
2023-02-20T09:14:53.712Z,4.77
2023-02-20T09:17:25.453Z,4.65
2023-02-20T09:19:57.409Z,4.61
2023-02-20T09:22:29.835Z,4.59
2023-02-20T09:25:01.743Z,4.52
2023-02-20T09:27:33.486Z,4.33
2023-02-20T09:30:05.835Z,4.33
2023-02-20T09:32:37.587Z,4.24
2023-02-20T09:35:10.130Z,4.28
2023-02-20T09:37:41.722Z,4.22
2023-02-20T09:40:14.169Z,4.19
2023-02-20T09:42:57.139Z,4.22
2023-02-20T09:45:33.060Z,4.24
2023-02-20T09:48:25.387Z,4.28
2023-02-20T09:51:01.198Z,4.13
2023-02-20T09:53:37.031Z,4.06
2023-02-20T09:56:15.331Z,3.95
2023-02-20T09:58:51.609Z,3.84
2023-02-20T10:01:26.386Z,3.74
2023-02-20T10:03:57.908Z,3.67
2023-02-20T10:06:32.563Z,3.59
2023-02-20T10:09:06.645Z,3.67
2023-02-20T10:12:00.230Z,3.71
2023-02-20T10:14:47.468Z,3.79
2023-02-20T10:17:29.254Z,3.84
2023-02-20T10:20:11.221Z,3.86
2023-02-20T10:22:51.698Z,3.82
2023-02-20T10:25:30.223Z,3.75
2023-02-20T10:28:07.692Z,3.72
2023-02-20T10:30:43.227Z,3.69
2023-02-20T10:33:28.374Z,3.78
2023-02-20T10:36:08.735Z,3.76
2023-02-20T10:38:47.273Z,3.75
2023-02-20T10:41:25.921Z,3.68
2023-02-20T10:44:02.991Z,3.65
2023-02-20T10:46:48.920Z,3.75
2023-02-20T10:49:26.650Z,3.79
2023-02-20T10:52:02.170Z,3.74
2023-02-20T10:54:39.850Z,3.90
2023-02-20T10:57:17.384Z,3.89
2023-02-20T10:59:56.269Z,3.99
2023-02-20T11:02:31.340Z,4.10
2023-02-20T11:05:08.052Z,4.06
2023-02-20T11:07:39.971Z,4.00
2023-02-20T11:10:12.585Z,4.02
2023-02-20T11:12:48.707Z,3.89
2023-02-20T11:15:23.990Z,3.97
2023-02-20T11:17:59.743Z,4.07
2023-02-20T11:20:47.804Z,3.98
2023-02-20T11:23:43.024Z,3.99
2023-02-20T11:26:36.387Z,4.02
2023-02-20T11:29:17.052Z,3.91
2023-02-20T11:31:50.141Z,3.96
2023-02-20T11:34:24.780Z,3.98
2023-02-20T11:37:06.341Z,4.04
2023-02-20T11:39:39.386Z,4.17
2023-02-20T11:42:17.836Z,4.19
2023-02-20T11:45:09.601Z,4.22
2023-02-20T11:47:41.280Z,4.24
2023-02-20T11:50:20.851Z,4.33
2023-02-20T11:53:05.630Z,4.41
2023-02-20T11:55:37.968Z,4.51
2023-02-20T11:58:22.647Z,4.61
2023-02-20T12:00:56.229Z,4.64
2023-02-20T12:03:29.998Z,4.76
2023-02-20T12:06:03.900Z,4.87
2023-02-20T12:08:53.137Z,4.88
2023-02-20T12:11:27.266Z,4.81
2023-02-20T12:14:01.547Z,4.88
2023-02-20T12:17:04.402Z,5.10
2023-02-20T12:19:49.770Z,5.14
2023-02-20T12:22:26.809Z,5.17
2023-02-20T12:25:10.894Z,5.34
2023-02-20T12:27:58.506Z,5.31
2023-02-20T12:30:41.826Z,5.33
2023-02-20T12:33:34.231Z,5.57
2023-02-20T12:36:20.058Z,5.71
2023-02-20T12:38:57.927Z,5.67
2023-02-20T12:41:37.459Z,5.67
2023-02-20T12:44:28.533Z,5.69
2023-02-20T12:47:15.857Z,5.72
2023-02-20T12:50:00.964Z,5.77
2023-02-20T12:52:39.068Z,5.83
2023-02-20T12:55:22.958Z,6.00
2023-02-20T12:58:09.360Z,6.15
2023-02-20T13:00:46.073Z,6.27
2023-02-20T13:03:21.280Z,6.39
2023-02-20T13:05:54.727Z,6.60
2023-02-20T13:08:31.410Z,6.71
2023-02-20T13:11:06.142Z,6.81
2023-02-20T13:13:48.487Z,6.89
2023-02-20T13:16:25.726Z,7.07
2023-02-20T13:19:06.301Z,7.16
2023-02-20T13:21:37.997Z,7.34
2023-02-20T13:24:34.764Z,7.36
2023-02-20T13:27:08.970Z,7.28
2023-02-20T13:29:57.600Z,7.29
2023-02-20T13:32:31.862Z,7.39
2023-02-20T13:35:38.707Z,7.39
2023-02-20T13:38:17.987Z,7.41
2023-02-20T13:41:09.579Z,7.41
2023-02-20T13:43:41.273Z,7.43
2023-02-20T13:46:23.054Z,7.41
2023-02-20T13:48:57.425Z,7.46
2023-02-20T13:51:36.892Z,7.48
2023-02-20T13:54:30.870Z,7.47
2023-02-20T13:57:14.360Z,7.45
2023-02-20T13:59:46.164Z,7.49
2023-02-20T14:02:24.397Z,7.58
2023-02-20T14:05:02.415Z,7.61
2023-02-20T14:07:39.806Z,7.63
2023-02-20T14:10:19.746Z,7.64
2023-02-20T14:12:57.731Z,7.72
2023-02-20T14:15:30.807Z,7.89
2023-02-20T14:18:03.078Z,7.94
2023-02-20T14:20:39.573Z,7.88
2023-02-20T14:23:19.927Z,7.86
2023-02-20T14:26:01.124Z,7.95
2023-02-20T14:28:37.001Z,8.05
2023-02-20T14:31:23.820Z,8.13
2023-02-20T14:33:59.833Z,8.26
2023-02-20T14:36:42.110Z,8.26
2023-02-20T14:39:25.998Z,8.20
2023-02-20T14:42:00.657Z,8.16
2023-02-20T14:44:33.901Z,8.20
2023-02-20T14:47:11.367Z,8.36
2023-02-20T14:49:43.593Z,8.46
2023-02-20T14:52:24.538Z,8.58
2023-02-20T14:55:07.668Z,8.47
2023-02-20T14:57:39.511Z,8.46
2023-02-20T15:00:27.842Z,8.54
2023-02-20T15:03:00.192Z,8.59
2023-02-20T15:05:36.089Z,8.64
2023-02-20T15:08:24.165Z,8.69
2023-02-20T15:10:57.974Z,8.80
2023-02-20T15:13:36.462Z,8.94
2023-02-20T15:16:19.624Z,8.99
2023-02-20T15:18:52.401Z,8.98
2023-02-20T15:21:43.670Z,9.05
2023-02-20T15:24:40.273Z,9.09
2023-02-20T15:27:18.753Z,9.06
2023-02-20T15:30:08.800Z,9.04
2023-02-20T15:32:41.777Z,9.09
2023-02-20T15:35:20.430Z,9.19
2023-02-20T15:37:56.032Z,9.16
2023-02-20T15:40:30.173Z,9.11
2023-02-20T15:43:04.593Z,9.06
2023-02-20T15:45:44.972Z,9.06
2023-02-20T15:48:16.772Z,9.06
2023-02-20T15:50:48.681Z,9.10
2023-02-20T15:53:23.176Z,9.20
2023-02-20T15:55:56.905Z,9.23
2023-02-20T15:58:34.270Z,9.30
2023-02-20T16:01:08.594Z,9.30
2023-02-20T16:03:51.650Z,9.25
2023-02-20T16:06:25.424Z,9.34
2023-02-20T16:08:57.130Z,9.35
2023-02-20T16:11:36.260Z,9.30
2023-02-20T16:14:10.691Z,9.37
2023-02-20T16:16:46.192Z,9.44
2023-02-20T16:19:24.116Z,9.52
2023-02-20T16:22:03.020Z,9.56
2023-02-20T16:24:36.735Z,9.56
2023-02-20T16:27:23.066Z,9.40
2023-02-20T16:29:57.461Z,9.42
2023-02-20T16:32:31.724Z,9.51
2023-02-20T16:35:05.415Z,9.59
2023-02-20T16:37:39.603Z,9.47
2023-02-20T16:40:14.263Z,9.41
2023-02-20T16:42:48.327Z,9.42
2023-02-20T16:45:23.729Z,9.48
2023-02-20T16:48:02.921Z,9.47
2023-02-20T16:50:35.833Z,9.42
2023-02-20T16:53:13.550Z,9.42
2023-02-20T16:55:48.202Z,9.31
2023-02-20T16:58:20.767Z,9.34
2023-02-20T17:00:58.369Z,9.35
2023-02-20T17:03:30.397Z,9.35
2023-02-20T17:06:05.119Z,9.38
2023-02-20T17:08:40.167Z,9.52
2023-02-20T17:11:13.012Z,9.59
2023-02-20T17:13:48.145Z,9.50
2023-02-20T17:16:30.783Z,9.48
2023-02-20T17:19:04.595Z,9.49
2023-02-20T17:21:38.334Z,9.49
2023-02-20T17:24:11.393Z,9.53
2023-02-20T17:26:44.891Z,9.61
2023-02-20T17:29:23.575Z,9.58
2023-02-20T17:31:56.998Z,9.64
2023-02-20T17:34:30.648Z,9.65
2023-02-20T17:37:03.569Z,9.70
2023-02-20T17:39:37.101Z,9.75
2023-02-20T17:42:13.620Z,9.65
2023-02-20T17:44:48.873Z,9.71
2023-02-20T17:47:22.296Z,9.73
2023-02-20T17:49:57.365Z,9.76
2023-02-20T17:52:30.674Z,9.74
2023-02-20T17:55:03.423Z,9.73
2023-02-20T17:57:37.988Z,9.73
2023-02-20T18:00:17.427Z,9.79
2023-02-20T18:03:04.731Z,9.94
2023-02-20T18:05:38.170Z,9.80
2023-02-20T18:08:13.190Z,9.81
2023-02-20T18:10:55.047Z,9.80
2023-02-20T18:13:29.902Z,9.87
2023-02-20T18:16:06.571Z,9.83
2023-02-20T18:18:40.616Z,9.88
2023-02-20T18:21:22.234Z,9.74
2023-02-20T18:23:55.711Z,9.74
2023-02-20T18:26:29.755Z,9.69
2023-02-20T18:29:03.636Z,9.64
2023-02-20T18:31:44.730Z,9.59
2023-02-20T18:34:19.204Z,9.56
2023-02-20T18:36:55.219Z,9.58
2023-02-20T18:39:29.290Z,9.54
2023-02-20T18:42:10.784Z,9.50
2023-02-20T18:44:48.646Z,9.55
2023-02-20T18:47:22.707Z,9.62
2023-02-20T18:50:11.999Z,9.48
2023-02-20T18:52:46.676Z,9.46
2023-02-20T18:55:21.331Z,9.52
2023-02-20T18:57:58.644Z,9.50
2023-02-20T19:00:35.578Z,9.54
2023-02-20T19:03:10.043Z,9.53
2023-02-20T19:06:04.418Z,9.51
2023-02-20T19:08:45.699Z,9.54
2023-02-20T19:11:23.429Z,9.47
2023-02-20T19:13:58.852Z,9.42
2023-02-20T19:16:33.420Z,9.45
2023-02-20T19:19:10.062Z,9.42
2023-02-20T19:21:45.536Z,9.31
2023-02-20T19:24:19.717Z,9.39
2023-02-20T19:26:54.636Z,9.28
2023-02-20T19:29:30.603Z,9.19
2023-02-20T19:32:05.897Z,9.10
2023-02-20T19:34:40.617Z,9.08
2023-02-20T19:37:16.778Z,9.06
2023-02-20T19:39:59.328Z,9.06
2023-02-20T19:42:36.360Z,9.01
2023-02-20T19:45:15.073Z,9.00
2023-02-20T19:47:49.128Z,9.05
2023-02-20T19:50:31.461Z,9.06
2023-02-20T19:53:07.808Z,8.99
2023-02-20T19:55:55.577Z,9.02
2023-02-20T19:58:34.078Z,9.12
2023-02-20T20:01:11.708Z,9.11
2023-02-20T20:03:53.634Z,9.06
2023-02-20T20:06:31.538Z,8.98
2023-02-20T20:09:13.726Z,8.98
2023-02-20T20:11:52.037Z,9.04
2023-02-20T20:14:27.838Z,8.95
2023-02-20T20:17:03.861Z,8.80
2023-02-20T20:19:53.232Z,8.77
2023-02-20T20:22:33.504Z,8.90
2023-02-20T20:25:10.835Z,9.09
2023-02-20T20:27:45.050Z,9.21
2023-02-20T20:30:24.404Z,9.22
2023-02-20T20:33:00.815Z,9.21
2023-02-20T20:35:34.981Z,9.14
2023-02-20T20:38:11.274Z,9.19
2023-02-20T20:40:45.978Z,9.22
2023-02-20T20:43:19.823Z,9.22
2023-02-20T20:45:54.553Z,9.25
2023-02-20T20:48:32.374Z,9.26
2023-02-20T20:51:13.786Z,9.16
2023-02-20T20:53:47.613Z,9.28
2023-02-20T20:56:22.896Z,9.30
2023-02-20T20:59:06.437Z,9.37
2023-02-20T21:01:40.846Z,9.36
2023-02-20T21:04:13.187Z,9.31
2023-02-20T21:06:46.368Z,9.37
2023-02-20T21:09:22.364Z,9.43
2023-02-20T21:11:58.734Z,9.34
2023-02-20T21:14:35.334Z,9.34
2023-02-20T21:17:11.540Z,9.29
2023-02-20T21:19:43.777Z,9.39
2023-02-20T21:22:16.352Z,9.50
2023-02-20T21:24:50.457Z,9.43
2023-02-20T21:27:23.084Z,9.48
2023-02-20T21:29:54.902Z,9.37
2023-02-20T21:32:27.101Z,9.26
2023-02-20T21:35:01.980Z,9.34
2023-02-20T21:37:35.491Z,9.31
2023-02-20T21:40:08.448Z,9.39
2023-02-20T21:42:59.010Z,9.35
2023-02-20T21:45:31.005Z,9.41
2023-02-20T21:48:02.855Z,9.41
2023-02-20T21:50:35.348Z,9.36
2023-02-20T21:53:18.845Z,9.34
2023-02-20T21:55:53.854Z,9.41
2023-02-20T21:58:39.361Z,9.50
2023-02-20T22:01:09.682Z,9.49
2023-02-20T22:03:39.993Z,9.47
2023-02-20T22:06:10.273Z,9.47
2023-02-20T22:08:58.975Z,9.50
2023-02-20T22:11:47.875Z,9.49
2023-02-20T22:14:36.860Z,9.40
2023-02-20T22:17:26.294Z,9.43
2023-02-20T22:20:15.718Z,9.47
2023-02-20T22:23:04.607Z,9.48
2023-02-20T22:25:53.444Z,9.54
2023-02-20T22:28:43.007Z,9.63
2023-02-20T22:31:31.678Z,9.71
2023-02-20T22:34:20.222Z,9.76
2023-02-20T22:37:10.199Z,9.67
2023-02-20T22:39:59.210Z,10.00
2023-02-20T22:42:48.437Z,10.22
2023-02-20T22:45:37.396Z,10.19
2023-02-20T22:48:26.065Z,10.08
2023-02-20T22:51:15.212Z,10.08
2023-02-20T22:54:05.987Z,10.15
2023-02-20T22:56:54.786Z,9.84
2023-02-20T22:59:44.019Z,9.72
2023-02-20T23:02:32.852Z,9.60
2023-02-20T23:05:21.815Z,9.64
2023-02-20T23:08:10.575Z,9.75
2023-02-20T23:10:59.725Z,9.75
2023-02-20T23:13:48.695Z,9.59
2023-02-20T23:16:40.893Z,9.52
2023-02-20T23:19:30.269Z,9.62
2023-02-20T23:22:19.020Z,9.52
2023-02-20T23:25:07.734Z,9.43
2023-02-20T23:27:56.449Z,9.32
2023-02-20T23:30:45.324Z,9.29
2023-02-20T23:33:34.275Z,9.26
2023-02-20T23:36:23.528Z,9.25
2023-02-20T23:39:13.387Z,9.23
2023-02-20T23:42:05.571Z,9.26
2023-02-20T23:44:54.225Z,9.24
2023-02-20T23:47:43.020Z,9.25
2023-02-20T23:50:32.016Z,9.29
2023-02-20T23:53:20.681Z,9.34
2023-02-20T23:56:10.890Z,9.31
2023-02-20T23:58:59.551Z,9.28
